| time (UTC) | temp C | wind direction | speed KPH | gust KPH | rain 1hr cm | rain 24hr cm | rain mn cm | humidity % | barometer mb |
| 20260903025504 | 24 | 171 | 0.0 | 0.0 | 0.00 | 0.00 | 0.00 | 83 | 1016.5 |
| 20260903025004 | 25 | 171 | 0.0 | 0.0 | 0.00 | 0.00 | 0.00 | 83 | 1016.5 |
| 20260903024004 | 25 | 171 | 0.0 | 0.0 | 0.00 | 0.00 | 0.00 | 83 | 1016.6 |
| 20260903023004 | 25 | 171 | 0.0 | 0.0 | 0.00 | 0.00 | 0.00 | 83 | 1016.6 |
| 20260903022504 | 25 | 171 | 0.0 | 0.0 | 0.00 | 0.00 | 0.00 | 83 | 1016.7 |
| 20260903022005 | 25 | 171 | 0.0 | 0.0 | 0.00 | 0.00 | 0.00 | 82 | 1016.7 |
| 20260903021504 | 25 | 171 | 0.0 | 0.0 | 0.00 | 0.00 | 0.00 | 81 | 1016.7 |
| 20260903021004 | 25 | 171 | 0.0 | 0.0 | 0.00 | 0.00 | 0.00 | 81 | 1016.6 |
| 20260903020504 | 25 | 171 | 0.0 | 0.0 | 0.00 | 0.00 | 0.00 | 81 | 1016.6 |
| 20260903020004 | 25 | 171 | 0.0 | 0.0 | 0.00 | 0.00 | 0.00 | 81 | 1016.6 |
| 20260903015505 | 26 | 171 | 0.0 | 0.0 | 0.00 | 0.00 | 0.00 | 80 | 1016.7 |
| 20260903015004 | 26 | 171 | 0.0 | 0.0 | 0.00 | 0.00 | 0.00 | 80 | 1016.7 |
| 20260903014504 | 26 | 171 | 0.0 | 0.0 | 0.00 | 0.00 | 0.00 | 79 | 1016.7 |
| 20260903014004 | 26 | 171 | 0.0 | 0.0 | 0.00 | 0.00 | 0.00 | 78 | 1016.6 |
| 20260903013504 | 26 | 171 | 0.0 | 0.0 | 0.00 | 0.00 | 0.00 | 78 | 1016.5 |
| 20260903013004 | 26 | 171 | 0.0 | 0.0 | 0.00 | 0.00 | 0.00 | 78 | 1016.5 |
| 20260903012504 | 26 | 171 | 0.0 | 0.0 | 0.00 | 0.00 | 0.00 | 77 | 1016.5 |
| 20260903012004 | 27 | 171 | 0.0 | 0.0 | 0.00 | 0.00 | 0.00 | 77 | 1016.3 |
| 20260903011504 | 27 | 171 | 0.0 | 0.0 | 0.00 | 0.00 | 0.00 | 77 | 1016.3 |
| 20260903010504 | 27 | 171 | 0.0 | 0.0 | 0.00 | 0.00 | 0.00 | 76 | 1016.2 |
| 20260903010004 | 27 | 171 | 0.0 | 0.0 | 0.00 | 0.00 | 0.00 | 75 | 1016.2 |
| 20260903005504 | 27 | 171 | 0.0 | 0.0 | 0.00 | 0.00 | 0.00 | 75 | 1016.1 |
| 20260903005004 | 27 | 171 | 0.0 | 0.0 | 0.00 | 0.00 | 0.00 | 75 | 1016.1 |
| 20260903004504 | 28 | 171 | 0.0 | 0.0 | 0.00 | 0.00 | 0.00 | 74 | 1016.1 |
| 20260903004004 | 28 | 171 | 0.0 | 0.0 | 0.00 | 0.00 | 0.00 | 73 | 1016.0 |
| 20260903003504 | 28 | 171 | 0.0 | 0.0 | 0.00 | 0.00 | 0.00 | 73 | 1015.9 |
| 20260903003004 | 28 | 171 | 0.0 | 0.0 | 0.00 | 0.00 | 0.00 | 72 | 1015.9 |
| 20260903002004 | 28 | 171 | 0.0 | 0.0 | 0.00 | 0.00 | 0.00 | 71 | 1015.8 |
| 20260903001004 | 29 | 171 | 0.0 | 0.0 | 0.00 | 0.00 | 0.00 | 70 | 1015.9 |
| 20260903000504 | 30 | 171 | 0.0 | 0.0 | 0.00 | 0.00 | 0.00 | 69 | 1016.0 |
| 20260902235504 | 31 | 171 | 0.0 | 0.0 | 0.00 | 0.00 | 0.00 | 65 | 1015.9 |
| 20260902234504 | 32 | 171 | 0.0 | 0.0 | 0.00 | 0.00 | 0.00 | 64 | 1016.0 |
| 20260902233504 | 32 | 171 | 0.0 | 4.8 | 0.00 | 0.00 | 0.00 | 64 | 1016.0 |
| 20260902233004 | 32 | 171 | 1.6 | 4.8 | 0.00 | 0.00 | 0.00 | 63 | 1016.1 |
| 20260902232504 | 32 | 171 | 1.6 | 4.8 | 0.00 | 0.00 | 0.00 | 61 | 1016.1 |
| 20260902232005 | 32 | 171 | 3.2 | 8.0 | 0.00 | 0.00 | 0.00 | 60 | 1016.1 |
| 20260902231504 | 32 | 170 | 4.8 | 9.7 | 0.00 | 0.00 | 0.00 | 59 | 1016.1 |
| 20260902231004 | 32 | 184 | 4.8 | 9.7 | 0.00 | 0.00 | 0.00 | 59 | 1016.1 |
| 20260902230505 | 32 | 193 | 4.8 | 9.7 | 0.00 | 0.00 | 0.00 | 58 | 1016.2 |
| 20260902230004 | 32 | 196 | 3.2 | 8.0 | 0.00 | 0.00 | 0.00 | 58 | 1016.2 |
| 20260902225504 | 33 | 220 | 3.2 | 8.0 | 0.00 | 0.00 | 0.00 | 58 | 1016.2 |
| 20260902225004 | 33 | 185 | 3.2 | 8.0 | 0.00 | 0.00 | 0.00 | 58 | 1016.1 |
| 20260902224504 | 33 | 186 | 3.2 | 11.3 | 0.00 | 0.00 | 0.00 | 57 | 1016.1 |
| 20260902223504 | 32 | 180 | 8.0 | 11.3 | 0.00 | 0.00 | 0.00 | 58 | 1016.2 |
| 20260902223004 | 32 | 183 | 8.0 | 9.7 | 0.00 | 0.00 | 0.00 | 57 | 1016.2 |
| 20260902222504 | 33 | 216 | 4.8 | 11.3 | 0.00 | 0.00 | 0.00 | 56 | 1016.2 |
| 20260902222004 | 33 | 173 | 6.4 | 16.1 | 0.00 | 0.00 | 0.00 | 57 | 1016.2 |
| 20260902221504 | 33 | 188 | 8.0 | 16.1 | 0.00 | 0.00 | 0.00 | 56 | 1016.2 |
| 20260902221004 | 33 | 171 | 8.0 | 11.3 | 0.00 | 0.00 | 0.00 | 56 | 1016.1 |
| 20260902220004 | 32 | 190 | 3.2 | 9.7 | 0.00 | 0.00 | 0.00 | 57 | 1016.2 |
| 20260902215504 | 32 | 182 | 4.8 | 11.3 | 0.00 | 0.00 | 0.00 | 57 | 1016.3 |
| 20260902215004 | 32 | 216 | 8.0 | 16.1 | 0.00 | 0.00 | 0.00 | 55 | 1016.3 |
| 20260902214504 | 33 | 198 | 9.7 | 16.1 | 0.00 | 0.00 | 0.00 | 54 | 1016.3 |
| 20260902214004 | 33 | 194 | 6.4 | 16.1 | 0.00 | 0.00 | 0.00 | 55 | 1016.3 |
| 20260902213504 | 33 | 175 | 8.0 | 16.1 | 0.00 | 0.00 | 0.00 | 55 | 1016.4 |
| 20260902213004 | 33 | 224 | 6.4 | 16.1 | 0.00 | 0.00 | 0.00 | 55 | 1016.3 |
| 20260902212504 | 33 | 224 | 8.0 | 16.1 | 0.00 | 0.00 | 0.00 | 55 | 1016.3 |
| 20260902212004 | 33 | 168 | 9.7 | 14.5 | 0.00 | 0.00 | 0.00 | 54 | 1016.3 |
| 20260902211504 | 33 | 186 | 4.8 | 14.5 | 0.00 | 0.00 | 0.00 | 54 | 1016.4 |
| 20260902211004 | 33 | 192 | 4.8 | 19.3 | 0.00 | 0.00 | 0.00 | 54 | 1016.5 |
| 20260902210505 | 33 | 173 | 9.7 | 19.3 | 0.00 | 0.00 | 0.00 | 53 | 1016.5 |
| 20260902210004 | 33 | 207 | 11.3 | 19.3 | 0.00 | 0.00 | 0.00 | 51 | 1016.5 |
| 20260902205504 | 34 | 240 | 8.0 | 14.5 | 0.00 | 0.00 | 0.00 | 52 | 1016.6 |
| 20260902205004 | 33 | 188 | 6.4 | 16.1 | 0.00 | 0.00 | 0.00 | 52 | 1016.5 |
| 20260902204504 | 34 | 212 | 9.7 | 16.1 | 0.00 | 0.00 | 0.00 | 52 | 1016.6 |
| 20260902203504 | 33 | 172 | 4.8 | 20.9 | 0.00 | 0.00 | 0.00 | 55 | 1016.6 |
| 20260902203004 | 34 | 185 | 14.5 | 20.9 | 0.00 | 0.00 | 0.00 | 50 | 1016.6 |
| 20260902202004 | 34 | 169 | 6.4 | 16.1 | 0.00 | 0.00 | 0.00 | 53 | 1016.7 |
| 20260902201504 | 33 | 178 | 9.7 | 16.1 | 0.00 | 0.00 | 0.00 | 52 | 1016.8 |
| 20260902201004 | 33 | 198 | 9.7 | 14.5 | 0.00 | 0.00 | 0.00 | 52 | 1016.8 |
| 20260902200504 | 33 | 178 | 9.7 | 16.1 | 0.00 | 0.00 | 0.00 | 51 | 1016.9 |
| 20260902195505 | 33 | 242 | 9.7 | 25.7 | 0.00 | 0.00 | 0.00 | 53 | 1017.0 |
| 20260902195004 | 33 | 190 | 16.1 | 25.7 | 0.00 | 0.00 | 0.00 | 52 | 1017.0 |
| 20260902194504 | 33 | 195 | 11.3 | 19.3 | 0.00 | 0.00 | 0.00 | 55 | 1017.0 |
| 20260902194004 | 33 | 267 | 6.4 | 19.3 | 0.00 | 0.00 | 0.00 | 58 | 1017.0 |
| 20260902193504 | 33 | 227 | 9.7 | 19.3 | 0.00 | 0.00 | 0.00 | 54 | 1017.1 |
| 20260902193004 | 33 | 231 | 9.7 | 19.3 | 0.00 | 0.00 | 0.00 | 54 | 1017.1 |
| 20260902192504 | 33 | 209 | 8.0 | 22.5 | 0.00 | 0.00 | 0.00 | 54 | 1017.2 |
| 20260902191504 | 33 | 249 | 8.0 | 24.1 | 0.00 | 0.00 | 0.00 | 54 | 1017.1 |
| 20260902191004 | 33 | 170 | 11.3 | 25.7 | 0.00 | 0.00 | 0.00 | 53 | 1017.2 |
| 20260902190504 | 33 | 181 | 14.5 | 25.7 | 0.00 | 0.00 | 0.00 | 53 | 1017.2 |
| 20260902190004 | 33 | 167 | 16.1 | 22.5 | 0.00 | 0.00 | 0.00 | 54 | 1017.2 |
| 20260902185004 | 33 | 167 | 8.0 | 16.1 | 0.00 | 0.00 | 0.00 | 54 | 1017.4 |
| 20260902184504 | 33 | 191 | 8.0 | 19.3 | 0.00 | 0.00 | 0.00 | 56 | 1017.4 |
| 20260902184006 | 33 | 226 | 11.3 | 19.3 | 0.00 | 0.00 | 0.00 | 56 | 1017.6 |
| 20260902183504 | 33 | 194 | 14.5 | 19.3 | 0.00 | 0.00 | 0.00 | 54 | 1017.6 |
| 20260902183004 | 33 | 203 | 9.7 | 19.3 | 0.00 | 0.00 | 0.00 | 55 | 1017.7 |
| 20260902182504 | 33 | 172 | 11.3 | 19.3 | 0.00 | 0.00 | 0.00 | 56 | 1017.7 |
| 20260902182004 | 32 | 193 | 8.0 | 19.3 | 0.00 | 0.00 | 0.00 | 58 | 1017.6 |
| 20260902175504 | 33 | 281 | 11.3 | 16.1 | 0.00 | 0.00 | 0.00 | 56 | 1017.8 |
| 20260902175004 | 33 | 109 | 4.8 | 14.5 | 0.00 | 0.00 | 0.00 | 57 | 1017.9 |
| 20260902174504 | 33 | 161 | 8.0 | 19.3 | 0.00 | 0.00 | 0.00 | 59 | 1018.0 |
| 20260902174004 | 33 | 197 | 9.7 | 24.1 | 0.00 | 0.00 | 0.00 | 58 | 1018.0 |
| 20260902173504 | 33 | 224 | 11.3 | 24.1 | 0.00 | 0.00 | 0.00 | 57 | 1018.1 |
| 20260902173005 | 32 | 148 | 11.3 | 24.1 | 0.00 | 0.00 | 0.00 | 58 | 1018.1 |
| 20260902172504 | 32 | 225 | 9.7 | 20.9 | 0.00 | 0.00 | 0.00 | 59 | 1018.1 |
| 20260902172004 | 32 | 199 | 9.7 | 22.5 | 0.00 | 0.00 | 0.00 | 60 | 1018.1 |
| 20260902171505 | 32 | 159 | 11.3 | 22.5 | 0.00 | 0.00 | 0.00 | 61 | 1018.2 |
| 20260902171005 | 32 | 211 | 8.0 | 19.3 | 0.00 | 0.00 | 0.00 | 59 | 1018.2 |
| 20260902170504 | 32 | 177 | 11.3 | 19.3 | 0.00 | 0.00 | 0.00 | 63 | 1018.3 |
| 20260902170004 | 32 | 189 | 8.0 | 19.3 | 0.00 | 0.00 | 0.00 | 61 | 1018.3 |
| 20260902165504 | 32 | 159 | 12.9 | 19.3 | 0.00 | 0.00 | 0.00 | 62 | 1018.4 |
| 20260902165004 | 32 | 222 | 9.7 | 19.3 | 0.00 | 0.00 | 0.00 | 61 | 1018.4 |
| 20260902164504 | 32 | 144 | 8.0 | 16.1 | 0.00 | 0.00 | 0.00 | 63 | 1018.5 |
| 20260902164004 | 32 | 145 | 9.7 | 19.3 | 0.00 | 0.00 | 0.00 | 66 | 1018.4 |
| 20260902163004 | 32 | 188 | 11.3 | 19.3 | 0.00 | 0.00 | 0.00 | 62 | 1018.5 |
| 20260902162504 | 32 | 190 | 12.9 | 19.3 | 0.00 | 0.00 | 0.00 | 62 | 1018.5 |
| 20260902162004 | 32 | 194 | 11.3 | 19.3 | 0.00 | 0.00 | 0.00 | 63 | 1018.5 |
| 20260902161504 | 31 | 104 | 6.4 | 16.1 | 0.00 | 0.00 | 0.00 | 65 | 1018.6 |
| 20260902161004 | 31 | 213 | 4.8 | 16.1 | 0.00 | 0.00 | 0.00 | 65 | 1018.6 |
| 20260902160007 | 31 | 146 | 4.8 | 16.1 | 0.00 | 0.00 | 0.00 | 68 | 1018.8 |
| 20260902155505 | 31 | 251 | 4.8 | 19.3 | 0.00 | 0.00 | 0.00 | 66 | 1018.9 |
| 20260902155004 | 31 | 180 | 8.0 | 19.3 | 0.00 | 0.00 | 0.00 | 67 | 1018.9 |
| 20260902154004 | 30 | 235 | 6.4 | 19.3 | 0.00 | 0.00 | 0.00 | 67 | 1018.9 |
| 20260902153004 | 30 | 178 | 11.3 | 19.3 | 0.00 | 0.00 | 0.00 | 68 | 1018.9 |
| 20260902152504 | 30 | 195 | 3.2 | 16.1 | 0.00 | 0.00 | 0.00 | 70 | 1019.0 |
| 20260902151504 | 30 | 242 | 8.0 | 14.5 | 0.00 | 0.00 | 0.00 | 69 | 1019.1 |
| 20260902150504 | 30 | 218 | 6.4 | 16.1 | 0.00 | 0.00 | 0.00 | 69 | 1019.0 |
| 20260902150004 | 30 | 226 | 11.3 | 16.1 | 0.00 | 0.00 | 0.00 | 68 | 1019.0 |
| 20260902145004 | 29 | 245 | 8.0 | 12.9 | 0.00 | 0.00 | 0.00 | 71 | 1019.0 |
| 20260902144504 | 29 | 237 | 4.8 | 12.9 | 0.00 | 0.00 | 0.00 | 71 | 1018.8 |
| 20260902144004 | 29 | 197 | 8.0 | 12.9 | 0.00 | 0.00 | 0.00 | 70 | 1018.8 |
| 20260902143504 | 29 | 226 | 8.0 | 11.3 | 0.00 | 0.00 | 0.00 | 71 | 1018.8 |
| 20260902143004 | 28 | 254 | 4.8 | 11.3 | 0.00 | 0.00 | 0.00 | 73 | 1018.9 |
| 20260902142504 | 28 | 212 | 3.2 | 16.1 | 0.00 | 0.00 | 0.00 | 72 | 1018.9 |
| 20260902142004 | 28 | 232 | 8.0 | 16.1 | 0.00 | 0.00 | 0.00 | 72 | 1018.9 |
| 20260902141004 | 28 | 220 | 6.4 | 16.1 | 0.00 | 0.00 | 0.00 | 72 | 1018.9 |
| 20260902140504 | 28 | 188 | 8.0 | 16.1 | 0.00 | 0.00 | 0.00 | 72 | 1018.8 |
| 20260902140004 | 28 | 204 | 8.0 | 12.9 | 0.00 | 0.00 | 0.00 | 72 | 1018.8 |
| 20260902135504 | 28 | 236 | 9.7 | 12.9 | 0.00 | 0.00 | 0.00 | 73 | 1018.7 |
| 20260902135004 | 27 | 229 | 4.8 | 9.7 | 0.00 | 0.00 | 0.00 | 74 | 1018.6 |
| 20260902134504 | 27 | 214 | 4.8 | 12.9 | 0.00 | 0.00 | 0.00 | 76 | 1018.7 |
| 20260902134004 | 27 | 190 | 8.0 | 12.9 | 0.00 | 0.00 | 0.00 | 75 | 1018.6 |
| 20260902133504 | 27 | 182 | 8.0 | 9.7 | 0.00 | 0.00 | 0.00 | 76 | 1018.7 |
| 20260902133004 | 27 | 164 | 3.2 | 11.3 | 0.00 | 0.00 | 0.00 | 78 | 1018.8 |
| 20260902132504 | 27 | 193 | 4.8 | 11.3 | 0.00 | 0.00 | 0.00 | 78 | 1018.8 |
| 20260902131504 | 27 | 153 | 3.2 | 4.8 | 0.00 | 0.00 | 0.00 | 78 | 1018.8 |
| 20260902131004 | 26 | 160 | 1.6 | 4.8 | 0.00 | 0.00 | 0.00 | 80 | 1018.7 |
| 20260902130503 | 26 | 158 | 0.0 | 0.0 | 0.00 | 0.00 | 0.00 | 80 | 1018.8 |
| 20260902130004 | 26 | 158 | 0.0 | 0.0 | 0.00 | 0.00 | 0.00 | 80 | 1018.7 |
| 20260902125504 | 26 | 156 | 0.0 | 0.0 | 0.00 | 0.00 | 0.00 | 81 | 1018.8 |
| 20260902125004 | 25 | 156 | 0.0 | 0.0 | 0.00 | 0.00 | 0.00 | 82 | 1018.7 |
| 20260902124504 | 25 | 156 | 0.0 | 0.0 | 0.00 | 0.00 | 0.00 | 83 | 1018.7 |
| 20260902123504 | 24 | 193 | 0.0 | 0.0 | 0.00 | 0.00 | 0.00 | 85 | 1018.6 |
| 20260902123004 | 23 | 206 | 0.0 | 0.0 | 0.00 | 0.00 | 0.00 | 86 | 1018.5 |
| 20260902122504 | 23 | 54 | 0.0 | 0.0 | 0.00 | 0.00 | 0.00 | 87 | 1018.5 |
| 20260902121504 | 23 | 54 | 0.0 | 0.0 | 0.00 | 0.00 | 0.00 | 89 | 1018.6 |
| 20260902121004 | 22 | 54 | 0.0 | 1.6 | 0.00 | 0.00 | 0.00 | 90 | 1018.5 |
| 20260902120504 | 22 | 109 | 0.0 | 1.6 | 0.00 | 0.00 | 0.00 | 89 | 1018.5 |
| 20260902115503 | 22 | 9 | 0.0 | 1.6 | 0.00 | 0.00 | 0.00 | 90 | 1018.3 |
| 20260902115005 | 21 | 8 | 0.0 | 1.6 | 0.00 | 0.00 | 0.00 | 90 | 1018.3 |
| 20260902114504 | 21 | 334 | 0.0 | 1.6 | 0.00 | 0.00 | 0.00 | 90 | 1018.0 |
| 20260902114004 | 21 | 37 | 0.0 | 1.6 | 0.00 | 0.00 | 0.00 | 90 | 1018.0 |
| 20260902113504 | 21 | 27 | 0.0 | 1.6 | 0.00 | 0.00 | 0.00 | 90 | 1018.0 |
| 20260902113004 | 21 | 27 | 0.0 | 1.6 | 0.00 | 0.00 | 0.00 | 89 | 1018.0 |
| 20260902112504 | 21 | 26 | 0.0 | 1.6 | 0.00 | 0.00 | 0.00 | 89 | 1018.0 |
| 20260902112004 | 20 | 9 | 0.0 | 1.6 | 0.00 | 0.00 | 0.00 | 89 | 1018.0 |
| 20260902111504 | 20 | 10 | 0.0 | 1.6 | 0.00 | 0.00 | 0.00 | 89 | 1018.0 |
| 20260902110005 | 21 | 193 | 0.0 | 0.0 | 0.00 | 0.00 | 0.00 | 88 | 1018.0 |
| 20260902105504 | 21 | 193 | 0.0 | 0.0 | 0.00 | 0.00 | 0.00 | 88 | 1018.1 |
| 20260902104504 | 21 | 193 | 0.0 | 0.0 | 0.00 | 0.00 | 0.00 | 88 | 1018.0 |
| 20260902103504 | 21 | 193 | 0.0 | 0.0 | 0.00 | 0.00 | 0.00 | 89 | 1018.0 |
| 20260902103004 | 21 | 193 | 0.0 | 0.0 | 0.00 | 0.00 | 0.00 | 89 | 1017.9 |
| 20260902102504 | 21 | 193 | 0.0 | 0.0 | 0.00 | 0.00 | 0.00 | 89 | 1018.0 |
| 20260902101504 | 21 | 193 | 0.0 | 0.0 | 0.00 | 0.00 | 0.00 | 90 | 1017.9 |
| 20260902100504 | 21 | 193 | 0.0 | 0.0 | 0.00 | 0.00 | 0.00 | 90 | 1017.9 |
| 20260902100005 | 21 | 193 | 0.0 | 0.0 | 0.00 | 0.00 | 0.00 | 89 | 1017.8 |
| 20260902095004 | 21 | 193 | 0.0 | 0.0 | 0.00 | 0.00 | 0.00 | 89 | 1017.9 |
| 20260902094504 | 21 | 193 | 0.0 | 0.0 | 0.00 | 0.00 | 0.00 | 89 | 1017.9 |
| 20260902093504 | 21 | 193 | 0.0 | 0.0 | 0.00 | 0.00 | 0.00 | 89 | 1017.9 |
| 20260902092004 | 21 | 193 | 0.0 | 0.0 | 0.00 | 0.00 | 0.00 | 90 | 1017.8 |
| 20260902091504 | 21 | 193 | 0.0 | 0.0 | 0.00 | 0.00 | 0.00 | 90 | 1017.7 |
| 20260902091004 | 21 | 193 | 0.0 | 0.0 | 0.00 | 0.00 | 0.00 | 89 | 1017.7 |
| 20260902090504 | 21 | 193 | 0.0 | 0.0 | 0.00 | 0.00 | 0.00 | 89 | 1017.6 |
| 20260902090005 | 21 | 193 | 0.0 | 0.0 | 0.00 | 0.00 | 0.00 | 89 | 1017.6 |
| 20260902085504 | 21 | 193 | 0.0 | 0.0 | 0.00 | 0.00 | 0.00 | 89 | 1017.6 |
| 20260902085004 | 21 | 193 | 0.0 | 0.0 | 0.00 | 0.00 | 0.00 | 88 | 1017.4 |
| 20260902084504 | 21 | 193 | 0.0 | 0.0 | 0.00 | 0.00 | 0.00 | 88 | 1017.4 |
| 20260902084004 | 21 | 193 | 0.0 | 0.0 | 0.00 | 0.00 | 0.00 | 88 | 1017.4 |
| 20260902083004 | 21 | 193 | 0.0 | 0.0 | 0.00 | 0.00 | 0.00 | 89 | 1017.2 |
| 20260902082504 | 21 | 193 | 0.0 | 0.0 | 0.00 | 0.00 | 0.00 | 89 | 1017.1 |
| 20260902082004 | 21 | 193 | 0.0 | 0.0 | 0.00 | 0.00 | 0.00 | 89 | 1017.1 |
| 20260902081504 | 21 | 193 | 0.0 | 0.0 | 0.00 | 0.00 | 0.00 | 89 | 1017.1 |
| 20260902081005 | 21 | 193 | 0.0 | 0.0 | 0.00 | 0.00 | 0.00 | 89 | 1017.0 |
| 20260902080504 | 21 | 193 | 0.0 | 0.0 | 0.00 | 0.00 | 0.00 | 88 | 1017.1 |
| 20260902080004 | 21 | 193 | 0.0 | 0.0 | 0.00 | 0.00 | 0.00 | 88 | 1017.1 |
| 20260902075504 | 21 | 193 | 0.0 | 0.0 | 0.00 | 0.00 | 0.00 | 88 | 1017.0 |
| 20260902075004 | 21 | 193 | 0.0 | 0.0 | 0.00 | 0.00 | 0.00 | 88 | 1017.1 |
| 20260902074504 | 21 | 193 | 0.0 | 0.0 | 0.00 | 0.00 | 0.00 | 88 | 1017.1 |
| 20260902074004 | 21 | 193 | 0.0 | 0.0 | 0.00 | 0.00 | 0.00 | 88 | 1017.0 |
| 20260902073504 | 21 | 193 | 0.0 | 0.0 | 0.00 | 0.00 | 0.00 | 88 | 1017.1 |
| 20260902073004 | 21 | 193 | 0.0 | 0.0 | 0.00 | 0.00 | 0.00 | 88 | 1017.1 |
| 20260902072504 | 21 | 193 | 0.0 | 0.0 | 0.00 | 0.00 | 0.00 | 88 | 1017.0 |
| 20260902071504 | 21 | 193 | 0.0 | 0.0 | 0.00 | 0.00 | 0.00 | 88 | 1017.1 |
| 20260902071004 | 21 | 193 | 0.0 | 0.0 | 0.00 | 0.00 | 0.00 | 88 | 1017.1 |
| 20260902070504 | 21 | 193 | 0.0 | 0.0 | 0.00 | 0.00 | 0.00 | 88 | 1017.1 |
| 20260902070006 | 21 | 193 | 0.0 | 0.0 | 0.00 | 0.00 | 0.00 | 87 | 1017.0 |
| 20260902065505 | 21 | 193 | 0.0 | 0.0 | 0.00 | 0.00 | 0.00 | 87 | 1017.0 |
| 20260902065004 | 22 | 193 | 0.0 | 0.0 | 0.00 | 0.00 | 0.00 | 88 | 1017.0 |
| 20260902064004 | 21 | 193 | 0.0 | 0.0 | 0.00 | 0.00 | 0.00 | 87 | 1017.1 |
| 20260902063504 | 22 | 193 | 0.0 | 0.0 | 0.00 | 0.00 | 0.00 | 87 | 1017.1 |
| 20260902063004 | 22 | 193 | 0.0 | 0.0 | 0.00 | 0.00 | 0.00 | 87 | 1017.1 |
| 20260902062504 | 22 | 193 | 0.0 | 0.0 | 0.00 | 0.00 | 0.00 | 87 | 1017.1 |
| 20260902062004 | 22 | 193 | 0.0 | 0.0 | 0.00 | 0.00 | 0.00 | 87 | 1017.0 |
| 20260902061504 | 22 | 193 | 0.0 | 0.0 | 0.00 | 0.00 | 0.00 | 86 | 1017.0 |
| 20260902060504 | 22 | 193 | 0.0 | 0.0 | 0.00 | 0.00 | 0.00 | 86 | 1017.1 |
| 20260902060004 | 22 | 193 | 0.0 | 0.0 | 0.00 | 0.00 | 0.00 | 86 | 1017.1 |
| 20260902055505 | 22 | 193 | 0.0 | 0.0 | 0.00 | 0.00 | 0.00 | 86 | 1017.1 |
| 20260902055004 | 22 | 193 | 0.0 | 0.0 | 0.00 | 0.00 | 0.00 | 85 | 1017.1 |
| 20260902054504 | 22 | 193 | 0.0 | 0.0 | 0.00 | 0.00 | 0.00 | 85 | 1017.2 |
| 20260902054004 | 22 | 193 | 0.0 | 0.0 | 0.00 | 0.00 | 0.00 | 85 | 1017.1 |
| 20260902053504 | 22 | 193 | 0.0 | 0.0 | 0.00 | 0.00 | 0.00 | 85 | 1017.1 |
| 20260902053004 | 22 | 193 | 0.0 | 0.0 | 0.00 | 0.00 | 0.00 | 85 | 1017.3 |
| 20260902052504 | 23 | 193 | 0.0 | 0.0 | 0.00 | 0.00 | 0.00 | 85 | 1017.3 |
| 20260902052004 | 23 | 193 | 0.0 | 0.0 | 0.00 | 0.00 | 0.00 | 84 | 1017.2 |
| 20260902051504 | 23 | 193 | 0.0 | 0.0 | 0.00 | 0.00 | 0.00 | 84 | 1017.3 |
| 20260902051004 | 23 | 193 | 0.0 | 0.0 | 0.00 | 0.00 | 0.00 | 84 | 1017.3 |
| 20260902045504 | 23 | 193 | 0.0 | 0.0 | 0.00 | 0.00 | 0.00 | 83 | 1017.3 |
| 20260902045004 | 23 | 193 | 0.0 | 0.0 | 0.00 | 0.00 | 0.00 | 82 | 1017.1 |
| 20260902044504 | 23 | 193 | 0.0 | 0.0 | 0.00 | 0.00 | 0.00 | 82 | 1017.2 |
| 20260902044004 | 24 | 193 | 0.0 | 0.0 | 0.00 | 0.00 | 0.00 | 82 | 1017.1 |
| 20260902043504 | 24 | 193 | 0.0 | 0.0 | 0.00 | 0.00 | 0.00 | 81 | 1017.1 |
| 20260902043004 | 24 | 193 | 0.0 | 0.0 | 0.00 | 0.00 | 0.00 | 81 | 1017.1 |
| 20260902042504 | 24 | 193 | 0.0 | 0.0 | 0.00 | 0.00 | 0.00 | 81 | 1017.0 |
| 20260902042004 | 25 | 193 | 0.0 | 0.0 | 0.00 | 0.00 | 0.00 | 81 | 1017.1 |
| 20260902041505 | 25 | 193 | 0.0 | 0.0 | 0.00 | 0.00 | 0.00 | 80 | 1017.2 |
| 20260902041004 | 25 | 193 | 0.0 | 0.0 | 0.00 | 0.00 | 0.00 | 80 | 1017.1 |
| 20260902040504 | 25 | 193 | 0.0 | 0.0 | 0.00 | 0.00 | 0.00 | 80 | 1017.1 |
| 20260902040004 | 25 | 193 | 0.0 | 0.0 | 0.00 | 0.00 | 0.00 | 80 | 1017.1 |
| 20260902035507 | 25 | 194 | 0.0 | 0.0 | 0.00 | 0.00 | 0.00 | 80 | 1017.1 |
| 20260902035004 | 25 | 194 | 0.0 | 0.0 | 0.00 | 0.00 | 0.00 | 80 | 1017.1 |
| 20260902034504 | 25 | 194 | 0.0 | 0.0 | 0.00 | 0.00 | 0.00 | 81 | 1017.1 |
| 20260902034004 | 24 | 188 | 0.0 | 0.0 | 0.00 | 0.00 | 0.00 | 82 | 1017.1 |
| 20260902032504 | 24 | 156 | 0.0 | 0.0 | 0.00 | 0.00 | 0.00 | 83 | 1017.1 |
| 20260902032004 | 24 | 156 | 0.0 | 0.0 | 0.00 | 0.00 | 0.00 | 84 | 1017.1 |
| 20260902031504 | 24 | 156 | 0.0 | 0.0 | 0.00 | 0.00 | 0.00 | 83 | 1017.2 |
| 20260902030504 | 24 | 156 | 0.0 | 0.0 | 0.00 | 0.00 | 0.00 | 83 | 1017.3 |
| 20260902030004 | 24 | 156 | 0.0 | 0.0 | 0.00 | 0.00 | 0.00 | 83 | 1017.3 |